sensor_id;sensor_type;location;lat;lon;timestamp;pressure;altitude;pressure_sealevel;temperature;humidity
23339;BME280;11841;49.368;20.962;2023-02-28T00:00:22;96743.25;;;-2.92;72.57
23339;BME280;11841;49.368;20.962;2023-02-28T00:02:49;96746.91;;;-2.94;72.52
23339;BME280;11841;49.368;20.962;2023-02-28T00:05:17;96744.44;;;-2.96;72.77
23339;BME280;11841;49.368;20.962;2023-02-28T00:07:44;96745.56;;;-3.00;72.78
23339;BME280;11841;49.368;20.962;2023-02-28T00:10:12;96744.03;;;-3.02;72.81
23339;BME280;11841;49.368;20.962;2023-02-28T00:12:39;96749.53;;;-3.07;72.60
23339;BME280;11841;49.368;20.962;2023-02-28T00:15:06;96755.69;;;-3.08;72.97
23339;BME280;11841;49.368;20.962;2023-02-28T00:17:33;96749.88;;;-3.11;72.72
23339;BME280;11841;49.368;20.962;2023-02-28T00:19:59;96757.50;;;-3.21;72.89
23339;BME280;11841;49.368;20.962;2023-02-28T00:22:29;96753.44;;;-3.25;73.08
23339;BME280;11841;49.368;20.962;2023-02-28T00:24:56;96761.22;;;-3.25;73.08
23339;BME280;11841;49.368;20.962;2023-02-28T00:27:23;96764.53;;;-3.23;72.97
23339;BME280;11841;49.368;20.962;2023-02-28T00:29:49;96764.75;;;-3.26;72.90
23339;BME280;11841;49.368;20.962;2023-02-28T00:32:16;96773.69;;;-3.30;73.07
23339;BME280;11841;49.368;20.962;2023-02-28T00:34:42;96770.59;;;-3.35;73.44
23339;BME280;11841;49.368;20.962;2023-02-28T00:37:09;96765.50;;;-3.36;73.07
23339;BME280;11841;49.368;20.962;2023-02-28T00:39:38;96771.72;;;-3.39;73.22
23339;BME280;11841;49.368;20.962;2023-02-28T00:42:05;96775.47;;;-3.43;73.38
23339;BME280;11841;49.368;20.962;2023-02-28T00:44:32;96774.75;;;-3.45;73.26
23339;BME280;11841;49.368;20.962;2023-02-28T00:46:58;96767.19;;;-3.48;73.28
23339;BME280;11841;49.368;20.962;2023-02-28T00:49:26;96776.31;;;-3.55;73.27
23339;BME280;11841;49.368;20.962;2023-02-28T00:51:53;96787.59;;;-3.56;73.53
23339;BME280;11841;49.368;20.962;2023-02-28T00:54:20;96784.59;;;-3.50;73.56
23339;BME280;11841;49.368;20.962;2023-02-28T00:56:47;96777.34;;;-3.45;73.69
23339;BME280;11841;49.368;20.962;2023-02-28T00:59:13;96772.66;;;-3.40;73.30
23339;BME280;11841;49.368;20.962;2023-02-28T01:01:40;96781.56;;;-3.44;73.11
23339;BME280;11841;49.368;20.962;2023-02-28T01:04:07;96785.53;;;-3.51;72.86
23339;BME280;11841;49.368;20.962;2023-02-28T01:06:34;96785.84;;;-3.55;73.19
23339;BME280;11841;49.368;20.962;2023-02-28T01:09:00;96779.53;;;-3.64;73.28
23339;BME280;11841;49.368;20.962;2023-02-28T01:11:27;96769.06;;;-3.62;73.50
23339;BME280;11841;49.368;20.962;2023-02-28T01:13:54;96772.69;;;-3.65;73.46
23339;BME280;11841;49.368;20.962;2023-02-28T01:16:20;96771.56;;;-3.74;73.54
23339;BME280;11841;49.368;20.962;2023-02-28T01:18:46;96778.19;;;-3.82;73.81
23339;BME280;11841;49.368;20.962;2023-02-28T01:21:14;96783.56;;;-3.85;74.01
23339;BME280;11841;49.368;20.962;2023-02-28T01:23:42;96774.88;;;-3.84;74.28
23339;BME280;11841;49.368;20.962;2023-02-28T01:26:12;96782.84;;;-3.75;74.00
23339;BME280;11841;49.368;20.962;2023-02-28T01:28:39;96777.44;;;-3.72;73.55
23339;BME280;11841;49.368;20.962;2023-02-28T01:31:06;96774.97;;;-3.73;73.64
23339;BME280;11841;49.368;20.962;2023-02-28T01:33:34;96778.81;;;-3.79;73.52
23339;BME280;11841;49.368;20.962;2023-02-28T01:36:01;96774.88;;;-3.84;73.74
23339;BME280;11841;49.368;20.962;2023-02-28T01:38:28;96771.97;;;-3.92;73.76
23339;BME280;11841;49.368;20.962;2023-02-28T01:40:55;96791.25;;;-3.96;73.97
23339;BME280;11841;49.368;20.962;2023-02-28T01:43:22;96773.59;;;-4.04;73.94
23339;BME280;11841;49.368;20.962;2023-02-28T01:45:49;96769.56;;;-4.08;73.85
23339;BME280;11841;49.368;20.962;2023-02-28T01:48:16;96769.47;;;-4.06;74.31
23339;BME280;11841;49.368;20.962;2023-02-28T01:50:43;96774.25;;;-4.13;74.14
23339;BME280;11841;49.368;20.962;2023-02-28T01:53:13;96766.56;;;-4.14;74.49
23339;BME280;11841;49.368;20.962;2023-02-28T01:55:41;96769.16;;;-4.14;74.32
23339;BME280;11841;49.368;20.962;2023-02-28T01:58:11;96766.16;;;-4.08;74.59
23339;BME280;11841;49.368;20.962;2023-02-28T02:00:37;96755.78;;;-4.08;74.35
23339;BME280;11841;49.368;20.962;2023-02-28T02:03:06;96751.44;;;-4.08;73.81
23339;BME280;11841;49.368;20.962;2023-02-28T02:05:36;96739.72;;;-4.13;74.18
23339;BME280;11841;49.368;20.962;2023-02-28T02:08:06;96734.97;;;-4.19;74.22
23339;BME280;11841;49.368;20.962;2023-02-28T02:10:40;96734.75;;;-4.29;74.49
23339;BME280;11841;49.368;20.962;2023-02-28T02:13:18;96736.31;;;-4.26;74.95
23339;BME280;11841;49.368;20.962;2023-02-28T02:16:08;96734.34;;;-4.23;74.46
23339;BME280;11841;49.368;20.962;2023-02-28T02:24:11;96732.91;;;-4.14;74.33
23339;BME280;11841;49.368;20.962;2023-02-28T02:26:55;96739.53;;;-4.10;74.31
23339;BME280;11841;49.368;20.962;2023-02-28T02:32:18;96742.13;;;-4.10;73.69
23339;BME280;11841;49.368;20.962;2023-02-28T02:42:15;96736.50;;;-4.29;74.63
23339;BME280;11841;49.368;20.962;2023-02-28T02:44:44;96735.59;;;-4.28;74.60
23339;BME280;11841;49.368;20.962;2023-02-28T02:47:15;96733.00;;;-4.28;74.89
23339;BME280;11841;49.368;20.962;2023-02-28T02:49:45;96729.88;;;-4.33;74.70
23339;BME280;11841;49.368;20.962;2023-02-28T02:52:14;96731.22;;;-4.40;74.52
23339;BME280;11841;49.368;20.962;2023-02-28T02:54:41;96731.69;;;-4.48;75.01
23339;BME280;11841;49.368;20.962;2023-02-28T02:57:11;96731.09;;;-4.51;75.19
23339;BME280;11841;49.368;20.962;2023-02-28T02:59:40;96738.88;;;-4.51;75.14
23339;BME280;11841;49.368;20.962;2023-02-28T03:02:08;96740.72;;;-4.53;75.18
23339;BME280;11841;49.368;20.962;2023-02-28T03:04:41;96742.47;;;-4.54;75.35
23339;BME280;11841;49.368;20.962;2023-02-28T03:07:09;96744.56;;;-4.46;75.53
23339;BME280;11841;49.368;20.962;2023-02-28T03:09:35;96757.72;;;-4.37;74.97
23339;BME280;11841;49.368;20.962;2023-02-28T03:12:02;96753.06;;;-4.32;74.83
23339;BME280;11841;49.368;20.962;2023-02-28T03:27:37;96767.81;;;-4.59;75.07
23339;BME280;11841;49.368;20.962;2023-02-28T03:30:09;96772.34;;;-4.62;75.26
23339;BME280;11841;49.368;20.962;2023-02-28T03:32:40;96768.31;;;-4.66;75.32
23339;BME280;11841;49.368;20.962;2023-02-28T03:35:16;96764.06;;;-4.67;75.39
23339;BME280;11841;49.368;20.962;2023-02-28T03:37:50;96773.47;;;-4.66;75.08
23339;BME280;11841;49.368;20.962;2023-02-28T03:40:19;96775.53;;;-4.71;75.07
23339;BME280;11841;49.368;20.962;2023-02-28T03:42:48;96772.41;;;-4.76;75.12
23339;BME280;11841;49.368;20.962;2023-02-28T03:45:18;96776.94;;;-4.80;75.65
23339;BME280;11841;49.368;20.962;2023-02-28T03:47:49;96782.47;;;-4.72;75.93
23339;BME280;11841;49.368;20.962;2023-02-28T03:50:24;96782.91;;;-4.65;75.67
23339;BME280;11841;49.368;20.962;2023-02-28T03:52:56;96779.91;;;-4.59;75.55
23339;BME280;11841;49.368;20.962;2023-02-28T03:55:32;96790.47;;;-4.62;74.77
23339;BME280;11841;49.368;20.962;2023-02-28T03:58:24;96778.66;;;-4.66;75.21
23339;BME280;11841;49.368;20.962;2023-02-28T04:00:48;96778.84;;;-4.69;75.42
23339;BME280;11841;49.368;20.962;2023-02-28T04:03:16;96779.69;;;-4.69;75.37
23339;BME280;11841;49.368;20.962;2023-02-28T04:05:47;96775.53;;;-4.71;75.01
23339;BME280;11841;49.368;20.962;2023-02-28T04:08:15;96763.75;;;-4.75;75.26
23339;BME280;11841;49.368;20.962;2023-02-28T04:10:42;96765.38;;;-4.74;75.21
23339;BME280;11841;49.368;20.962;2023-02-28T04:13:12;96779.44;;;-4.78;75.44
23339;BME280;11841;49.368;20.962;2023-02-28T04:15:38;96767.25;;;-4.76;75.59
23339;BME280;11841;49.368;20.962;2023-02-28T04:18:05;96774.53;;;-4.69;76.10
23339;BME280;11841;49.368;20.962;2023-02-28T04:20:32;96770.09;;;-4.67;75.36
23339;BME280;11841;49.368;20.962;2023-02-28T04:22:58;96769.44;;;-4.70;75.81
23339;BME280;11841;49.368;20.962;2023-02-28T04:25:24;96780.72;;;-4.71;76.36
23339;BME280;11841;49.368;20.962;2023-02-28T04:27:51;96779.50;;;-4.66;76.22
23339;BME280;11841;49.368;20.962;2023-02-28T04:30:17;96779.50;;;-4.66;75.83
23339;BME280;11841;49.368;20.962;2023-02-28T04:32:44;96784.56;;;-4.64;75.93
23339;BME280;11841;49.368;20.962;2023-02-28T04:35:10;96793.28;;;-4.65;75.93
23339;BME280;11841;49.368;20.962;2023-02-28T04:37:37;96789.63;;;-4.63;75.78
23339;BME280;11841;49.368;20.962;2023-02-28T04:40:04;96790.78;;;-4.67;75.94
23339;BME280;11841;49.368;20.962;2023-02-28T04:42:31;96789.41;;;-4.72;76.16
23339;BME280;11841;49.368;20.962;2023-02-28T04:45:02;96786.81;;;-4.72;76.17
23339;BME280;11841;49.368;20.962;2023-02-28T04:47:29;96782.38;;;-4.70;76.56
23339;BME280;11841;49.368;20.962;2023-02-28T04:49:55;96781.84;;;-4.75;76.45
23339;BME280;11841;49.368;20.962;2023-02-28T04:52:22;96789.41;;;-4.72;76.66
23339;BME280;11841;49.368;20.962;2023-02-28T04:54:48;96782.38;;;-4.70;76.86
23339;BME280;11841;49.368;20.962;2023-02-28T04:57:15;96780.53;;;-4.68;77.09
23339;BME280;11841;49.368;20.962;2023-02-28T04:59:42;96783.81;;;-4.66;76.51
23339;BME280;11841;49.368;20.962;2023-02-28T05:02:08;96782.19;;;-4.67;76.75
23339;BME280;11841;49.368;20.962;2023-02-28T05:04:35;96781.78;;;-4.61;76.82
23339;BME280;11841;49.368;20.962;2023-02-28T05:07:02;96782.91;;;-4.65;76.92
23339;BME280;11841;49.368;20.962;2023-02-28T05:09:29;96781.78;;;-4.61;76.91
23339;BME280;11841;49.368;20.962;2023-02-28T05:11:55;96785.72;;;-4.56;76.79
23339;BME280;11841;49.368;20.962;2023-02-28T05:14:22;96789.16;;;-4.55;76.85
23339;BME280;11841;49.368;20.962;2023-02-28T05:16:48;96783.66;;;-4.51;77.08
23339;BME280;11841;49.368;20.962;2023-02-28T05:19:15;96785.78;;;-4.43;76.78
23339;BME280;11841;49.368;20.962;2023-02-28T05:21:52;96784.41;;;-4.49;76.63
23339;BME280;11841;49.368;20.962;2023-02-28T05:24:19;96782.75;;;-4.50;76.79
23339;BME280;11841;49.368;20.962;2023-02-28T05:26:52;96783.47;;;-4.48;77.05
23339;BME280;11841;49.368;20.962;2023-02-28T05:29:19;96785.34;;;-4.50;76.83
23339;BME280;11841;49.368;20.962;2023-02-28T05:31:45;96790.22;;;-4.45;77.57
23339;BME280;11841;49.368;20.962;2023-02-28T05:34:12;96800.91;;;-4.37;77.43
23339;BME280;11841;49.368;20.962;2023-02-28T05:36:41;96799.97;;;-4.36;77.21
23339;BME280;11841;49.368;20.962;2023-02-28T05:39:08;96801.09;;;-4.40;77.52
23339;BME280;11841;49.368;20.962;2023-02-28T05:41:39;96810.44;;;-4.38;77.48
23339;BME280;11841;49.368;20.962;2023-02-28T05:44:06;96811.16;;;-4.36;77.43
23339;BME280;11841;49.368;20.962;2023-02-28T05:46:33;96811.03;;;-4.34;78.07
23339;BME280;11841;49.368;20.962;2023-02-28T05:48:59;96819.44;;;-4.31;77.75
23339;BME280;11841;49.368;20.962;2023-02-28T05:51:27;96815.00;;;-4.29;78.27
23339;BME280;11841;49.368;20.962;2023-02-28T05:53:54;96817.09;;;-4.21;77.91
23339;BME280;11841;49.368;20.962;2023-02-28T05:56:20;96815.25;;;-4.19;77.88
23339;BME280;11841;49.368;20.962;2023-02-28T05:58:47;96817.91;;;-4.21;77.79
23339;BME280;11841;49.368;20.962;2023-02-28T06:01:47;96828.91;;;-4.17;78.00
23339;BME280;11841;49.368;20.962;2023-02-28T06:04:07;96831.22;;;-4.13;78.17
23339;BME280;11841;49.368;20.962;2023-02-28T06:06:44;96836.72;;;-4.05;78.08
23339;BME280;11841;49.368;20.962;2023-02-28T06:09:11;96840.94;;;-4.04;77.97
23339;BME280;11841;49.368;20.962;2023-02-28T06:11:38;96838.47;;;-4.05;77.88
23339;BME280;11841;49.368;20.962;2023-02-28T06:14:06;96840.13;;;-4.04;78.01
23339;BME280;11841;49.368;20.962;2023-02-28T06:16:33;96842.63;;;-4.03;78.34
23339;BME280;11841;49.368;20.962;2023-02-28T06:19:02;96838.88;;;-3.99;78.41
23339;BME280;11841;49.368;20.962;2023-02-28T06:21:29;96836.13;;;-3.96;78.74
23339;BME280;11841;49.368;20.962;2023-02-28T06:23:57;96844.69;;;-3.95;78.59
23339;BME280;11841;49.368;20.962;2023-02-28T06:26:23;96837.44;;;-3.90;78.47
23339;BME280;11841;49.368;20.962;2023-02-28T06:28:50;96847.81;;;-3.90;78.55
23339;BME280;11841;49.368;20.962;2023-02-28T06:31:17;96846.16;;;-3.91;78.54
23339;BME280;11841;49.368;20.962;2023-02-28T06:33:44;96842.63;;;-3.90;78.69
23339;BME280;11841;49.368;20.962;2023-02-28T06:36:11;96836.53;;;-3.89;78.78
23339;BME280;11841;49.368;20.962;2023-02-28T06:38:39;96845.75;;;-3.85;79.09
23339;BME280;11841;49.368;20.962;2023-02-28T06:41:07;96846.38;;;-3.82;78.78
23339;BME280;11841;49.368;20.962;2023-02-28T06:43:39;96836.63;;;-3.78;79.26
23339;BME280;11841;49.368;20.962;2023-02-28T06:46:07;96832.50;;;-3.68;78.90
23339;BME280;11841;49.368;20.962;2023-02-28T06:48:34;96825.16;;;-3.61;78.77
23339;BME280;11841;49.368;20.962;2023-02-28T06:51:05;96825.75;;;-3.58;78.52
23339;BME280;11841;49.368;20.962;2023-02-28T06:53:32;96822.88;;;-3.53;78.54
23339;BME280;11841;49.368;20.962;2023-02-28T06:55:58;96808.66;;;-3.48;78.64
23339;BME280;11841;49.368;20.962;2023-02-28T06:58:25;96814.38;;;-3.43;78.72
23339;BME280;11841;49.368;20.962;2023-02-28T07:00:52;96804.69;;;-3.41;78.73
23339;BME280;11841;49.368;20.962;2023-02-28T07:03:18;96821.50;;;-3.34;79.11
23339;BME280;11841;49.368;20.962;2023-02-28T07:05:45;96814.84;;;-3.25;79.01
23339;BME280;11841;49.368;20.962;2023-02-28T07:08:11;96823.03;;;-3.19;79.11
23339;BME280;11841;49.368;20.962;2023-02-28T07:10:38;96819.06;;;-3.12;79.27
23339;BME280;11841;49.368;20.962;2023-02-28T07:13:05;96823.00;;;-3.06;79.75
23339;BME280;11841;49.368;20.962;2023-02-28T07:15:32;96828.50;;;-2.98;79.29
23339;BME280;11841;49.368;20.962;2023-02-28T07:17:58;96831.47;;;-2.92;79.11
23339;BME280;11841;49.368;20.962;2023-02-28T07:20:25;96825.25;;;-2.89;79.14
23339;BME280;11841;49.368;20.962;2023-02-28T07:22:51;96830.56;;;-2.91;79.36
23339;BME280;11841;49.368;20.962;2023-02-28T07:25:23;96827.84;;;-2.89;79.39
23339;BME280;11841;49.368;20.962;2023-02-28T07:27:49;96832.22;;;-2.90;79.62
23339;BME280;11841;49.368;20.962;2023-02-28T07:30:16;96822.66;;;-2.89;79.64
23339;BME280;11841;49.368;20.962;2023-02-28T07:32:43;96823.38;;;-2.87;79.42
23339;BME280;11841;49.368;20.962;2023-02-28T07:35:10;96830.13;;;-2.85;79.08
23339;BME280;11841;49.368;20.962;2023-02-28T07:37:37;96830.72;;;-2.81;79.43
23339;BME280;11841;49.368;20.962;2023-02-28T07:40:04;96829.81;;;-2.80;79.30
23339;BME280;11841;49.368;20.962;2023-02-28T07:42:34;96836.53;;;-2.78;79.10
23339;BME280;11841;49.368;20.962;2023-02-28T07:45:01;96838.78;;;-2.73;78.56
23339;BME280;11841;49.368;20.962;2023-02-28T07:47:31;96831.53;;;-2.68;78.89
23339;BME280;11841;49.368;20.962;2023-02-28T07:49:58;96834.84;;;-2.66;78.34
23339;BME280;11841;49.368;20.962;2023-02-28T07:52:24;96843.22;;;-2.63;78.08
23339;BME280;11841;49.368;20.962;2023-02-28T07:54:51;96840.41;;;-2.60;78.01
23339;BME280;11841;49.368;20.962;2023-02-28T07:57:17;96835.84;;;-2.56;77.87
23339;BME280;11841;49.368;20.962;2023-02-28T07:59:44;96839.75;;;-2.51;77.70
23339;BME280;11841;49.368;20.962;2023-02-28T08:02:12;96841.00;;;-2.43;77.82
23339;BME280;11841;49.368;20.962;2023-02-28T08:04:39;96842.63;;;-2.42;77.84
23339;BME280;11841;49.368;20.962;2023-02-28T08:07:06;96841.72;;;-2.41;77.68
23339;BME280;11841;49.368;20.962;2023-02-28T08:09:33;96839.63;;;-2.36;77.37
23339;BME280;11841;49.368;20.962;2023-02-28T08:12:00;96833.47;;;-2.35;76.18
23339;BME280;11841;49.368;20.962;2023-02-28T08:14:27;96835.75;;;-2.31;75.52
23339;BME280;11841;49.368;20.962;2023-02-28T08:16:53;96842.25;;;-2.25;73.42
23339;BME280;11841;49.368;20.962;2023-02-28T08:19:20;96843.69;;;-2.21;72.38
23339;BME280;11841;49.368;20.962;2023-02-28T08:21:47;96831.09;;;-2.15;72.25
23339;BME280;11841;49.368;20.962;2023-02-28T08:24:13;96834.66;;;-2.05;72.63
23339;BME280;11841;49.368;20.962;2023-02-28T08:26:39;96829.34;;;-2.03;71.85
23339;BME280;11841;49.368;20.962;2023-02-28T08:29:06;96832.22;;;-1.95;71.61
23339;BME280;11841;49.368;20.962;2023-02-28T08:31:32;96835.31;;;-1.90;71.87
23339;BME280;11841;49.368;20.962;2023-02-28T08:33:59;96841.72;;;-1.83;71.63
23339;BME280;11841;49.368;20.962;2023-02-28T08:36:26;96837.56;;;-1.86;69.78
23339;BME280;11841;49.368;20.962;2023-02-28T08:38:56;96847.13;;;-1.86;70.60
23339;BME280;11841;49.368;20.962;2023-02-28T08:41:22;96847.13;;;-1.86;70.41
23339;BME280;11841;49.368;20.962;2023-02-28T08:43:49;96844.09;;;-1.80;70.93
23339;BME280;11841;49.368;20.962;2023-02-28T08:46:15;96845.38;;;-1.75;69.93
23339;BME280;11841;49.368;20.962;2023-02-28T08:48:42;96846.94;;;-1.72;70.03
23339;BME280;11841;49.368;20.962;2023-02-28T08:51:11;96852.63;;;-1.67;70.57
23339;BME280;11841;49.368;20.962;2023-02-28T08:53:38;96845.31;;;-1.62;70.90
23339;BME280;11841;49.368;20.962;2023-02-28T08:56:06;96847.47;;;-1.56;70.29
23339;BME280;11841;49.368;20.962;2023-02-28T08:58:34;96843.19;;;-1.57;69.41
23339;BME280;11841;49.368;20.962;2023-02-28T09:01:06;96852.53;;;-1.55;70.23
23339;BME280;11841;49.368;20.962;2023-02-28T09:03:33;96853.22;;;-1.53;70.42
23339;BME280;11841;49.368;20.962;2023-02-28T09:06:00;96853.50;;;-1.45;69.93
23339;BME280;11841;49.368;20.962;2023-02-28T09:08:29;96848.44;;;-1.35;70.03
23339;BME280;11841;49.368;20.962;2023-02-28T09:10:56;96850.56;;;-1.29;70.26
23339;BME280;11841;49.368;20.962;2023-02-28T09:13:25;96849.13;;;-1.22;70.80
23339;BME280;11841;49.368;20.962;2023-02-28T09:15:53;96845.59;;;-1.21;71.25
23339;BME280;11841;49.368;20.962;2023-02-28T09:18:20;96839.19;;;-1.17;71.04
23339;BME280;11841;49.368;20.962;2023-02-28T09:20:46;96850.91;;;-1.11;70.94
23339;BME280;11841;49.368;20.962;2023-02-28T09:23:13;96843.47;;;-1.05;71.57
23339;BME280;11841;49.368;20.962;2023-02-28T09:25:46;96842.53;;;-1.04;70.61
23339;BME280;11841;49.368;20.962;2023-02-28T09:28:13;96844.88;;;-0.90;72.94
23339;BME280;11841;49.368;20.962;2023-02-28T09:30:42;96845.84;;;-0.80;70.98
23339;BME280;11841;49.368;20.962;2023-02-28T09:33:09;96846.19;;;-0.73;71.91
23339;BME280;11841;49.368;20.962;2023-02-28T09:35:36;96837.53;;;-0.74;70.64
23339;BME280;11841;49.368;20.962;2023-02-28T09:38:03;96839.66;;;-0.68;70.59
23339;BME280;11841;49.368;20.962;2023-02-28T09:40:30;96840.81;;;-0.61;70.47
23339;BME280;11841;49.368;20.962;2023-02-28T09:42:57;96845.56;;;-0.55;69.93
23339;BME280;11841;49.368;20.962;2023-02-28T09:45:30;96844.47;;;-0.52;69.66
23339;BME280;11841;49.368;20.962;2023-02-28T09:47:59;96841.53;;;-0.59;69.30
23339;BME280;11841;49.368;20.962;2023-02-28T09:50:33;96841.75;;;-0.51;70.95
23339;BME280;11841;49.368;20.962;2023-02-28T09:53:06;96833.00;;;-0.50;70.49
23339;BME280;11841;49.368;20.962;2023-02-28T09:55:38;96833.13;;;-0.51;70.70
23339;BME280;11841;49.368;20.962;2023-02-28T09:58:20;96826.13;;;-0.51;70.10
23339;BME280;11841;49.368;20.962;2023-02-28T10:00:53;96826.13;;;-0.51;70.22
23339;BME280;11841;49.368;20.962;2023-02-28T10:03:25;96828.25;;;-0.45;70.95
23339;BME280;11841;49.368;20.962;2023-02-28T10:08:45;96821.75;;;-0.19;70.93
23339;BME280;11841;49.368;20.962;2023-02-28T10:11:15;96820.75;;;-0.07;70.25
23339;BME280;11841;49.368;20.962;2023-02-28T10:16:18;96811.75;;;-0.03;70.21
23339;BME280;11841;49.368;20.962;2023-02-28T10:19:10;96813.53;;;0.18;69.52
23339;BME280;11841;49.368;20.962;2023-02-28T10:21:38;96807.00;;;0.23;68.41
23339;BME280;11841;49.368;20.962;2023-02-28T10:26:52;96806.28;;;0.21;67.90
23339;BME280;11841;49.368;20.962;2023-02-28T10:29:20;96803.28;;;0.26;68.56
23339;BME280;11841;49.368;20.962;2023-02-28T10:31:46;96802.53;;;0.35;68.89
23339;BME280;11841;49.368;20.962;2023-02-28T10:34:13;96800.81;;;0.45;69.26
23339;BME280;11841;49.368;20.962;2023-02-28T10:36:40;96798.59;;;0.61;69.70
23339;BME280;11841;49.368;20.962;2023-02-28T10:41:54;96800.00;;;0.95;69.13
23339;BME280;11841;49.368;20.962;2023-02-28T10:44:22;96791.06;;;1.07;69.16
23339;BME280;11841;49.368;20.962;2023-02-28T10:46:49;96787.94;;;1.13;67.89
23339;BME280;11841;49.368;20.962;2023-02-28T10:49:17;96783.41;;;1.15;67.05
23339;BME280;11841;49.368;20.962;2023-02-28T10:51:52;96768.97;;;1.20;67.97
23339;BME280;11841;49.368;20.962;2023-02-28T10:57:15;96773.13;;;1.23;67.42
23339;BME280;11841;49.368;20.962;2023-02-28T10:59:42;96775.50;;;1.36;66.76
23339;BME280;11841;49.368;20.962;2023-02-28T11:05:24;96770.22;;;1.26;65.95
23339;BME280;11841;49.368;20.962;2023-02-28T11:07:51;96768.03;;;1.21;65.37
23339;BME280;11841;49.368;20.962;2023-02-28T11:10:19;96760.34;;;1.20;65.40
23339;BME280;11841;49.368;20.962;2023-02-28T11:12:47;96763.94;;;1.29;65.87
23339;BME280;11841;49.368;20.962;2023-02-28T11:17:45;96755.31;;;1.47;65.48
23339;BME280;11841;49.368;20.962;2023-02-28T11:20:23;96751.84;;;1.56;66.36
23339;BME280;11841;49.368;20.962;2023-02-28T11:22:51;96744.59;;;1.69;65.27
23339;BME280;11841;49.368;20.962;2023-02-28T11:25:22;96740.31;;;1.68;64.69
23339;BME280;11841;49.368;20.962;2023-02-28T11:27:52;96736.19;;;1.75;65.68
23339;BME280;11841;49.368;20.962;2023-02-28T11:30:24;96740.59;;;1.84;65.02
23339;BME280;11841;49.368;20.962;2023-02-28T11:32:52;96735.66;;;1.81;64.36
23339;BME280;11841;49.368;20.962;2023-02-28T11:35:29;96736.31;;;1.83;65.11
23339;BME280;11841;49.368;20.962;2023-02-28T11:37:57;96739.91;;;2.01;66.03
23339;BME280;11841;49.368;20.962;2023-02-28T11:40:28;96739.31;;;2.07;64.18
23339;BME280;11841;49.368;20.962;2023-02-28T11:48:08;96739.09;;;1.91;63.04
23339;BME280;11841;49.368;20.962;2023-02-28T11:55:48;96740.53;;;2.22;65.61
23339;BME280;11841;49.368;20.962;2023-02-28T12:01:01;96732.09;;;2.47;63.44
23339;BME280;11841;49.368;20.962;2023-02-28T12:18:51;96722.13;;;2.61;63.32
23339;BME280;11841;49.368;20.962;2023-02-28T12:26:41;96708.84;;;2.99;63.83
23339;BME280;11841;49.368;20.962;2023-02-28T12:32:14;96709.53;;;3.01;61.98
23339;BME280;11841;49.368;20.962;2023-02-28T12:34:44;96710.50;;;3.00;64.19
23339;BME280;11841;49.368;20.962;2023-02-28T12:37:14;96708.19;;;2.97;61.56
23339;BME280;11841;49.368;20.962;2023-02-28T12:39:48;96714.28;;;2.88;62.10
23339;BME280;11841;49.368;20.962;2023-02-28T12:42:19;96717.75;;;2.88;61.38
23339;BME280;11841;49.368;20.962;2023-02-28T12:44:56;96716.06;;;2.87;62.05
23339;BME280;11841;49.368;20.962;2023-02-28T12:47:24;96713.47;;;2.87;62.45
23339;BME280;11841;49.368;20.962;2023-02-28T12:49:56;96705.84;;;2.94;62.41
23339;BME280;11841;49.368;20.962;2023-02-28T12:55:08;96710.66;;;2.98;61.46
23339;BME280;11841;49.368;20.962;2023-02-28T12:57:43;96710.69;;;2.89;61.69
23339;BME280;11841;49.368;20.962;2023-02-28T13:00:14;96702.94;;;2.97;63.20
23339;BME280;11841;49.368;20.962;2023-02-28T13:10:39;96708.66;;;2.83;63.42
23339;BME280;11841;49.368;20.962;2023-02-28T13:13:11;96709.09;;;2.78;62.77
23339;BME280;11841;49.368;20.962;2023-02-28T13:15:39;96707.75;;;2.74;63.60
23339;BME280;11841;49.368;20.962;2023-02-28T13:18:29;96705.06;;;2.84;63.29
23339;BME280;11841;49.368;20.962;2023-02-28T13:20:57;96709.91;;;2.79;62.61
23339;BME280;11841;49.368;20.962;2023-02-28T13:26:22;96703.44;;;2.83;62.84
23339;BME280;11841;49.368;20.962;2023-02-28T13:31:20;96702.44;;;2.84;62.48
23339;BME280;11841;49.368;20.962;2023-02-28T13:38:46;96702.28;;;2.85;62.37
23339;BME280;11841;49.368;20.962;2023-02-28T13:44:06;96691.72;;;2.77;63.06
23339;BME280;11841;49.368;20.962;2023-02-28T13:46:35;96693.13;;;2.72;63.54
23339;BME280;11841;49.368;20.962;2023-02-28T13:54:35;96681.50;;;2.84;63.85
23339;BME280;11841;49.368;20.962;2023-02-28T13:59:38;96683.34;;;2.74;63.51
23339;BME280;11841;49.368;20.962;2023-02-28T14:04:50;96679.09;;;2.73;63.32
23339;BME280;11841;49.368;20.962;2023-02-28T14:07:21;96678.78;;;2.76;63.54
23339;BME280;11841;49.368;20.962;2023-02-28T14:09:52;96675.78;;;2.71;63.24
23339;BME280;11841;49.368;20.962;2023-02-28T14:17:53;96675.53;;;2.64;63.72
23339;BME280;11841;49.368;20.962;2023-02-28T14:20:21;96679.56;;;2.59;63.58
23339;BME280;11841;49.368;20.962;2023-02-28T14:38:30;96680.78;;;2.55;64.59
23339;BME280;11841;49.368;20.962;2023-02-28T14:40:58;96687.59;;;2.47;64.08
23339;BME280;11841;49.368;20.962;2023-02-28T14:43:27;96699.03;;;2.46;65.12
23339;BME280;11841;49.368;20.962;2023-02-28T14:46:01;96680.00;;;2.44;64.78
23339;BME280;11841;49.368;20.962;2023-02-28T14:48:28;96691.03;;;2.48;64.52
23339;BME280;11841;49.368;20.962;2023-02-28T14:50:58;96686.22;;;2.43;65.13
23339;BME280;11841;49.368;20.962;2023-02-28T14:53:27;96690.22;;;2.47;65.37
23339;BME280;11841;49.368;20.962;2023-02-28T14:55:54;96691.75;;;2.40;65.04
23339;BME280;11841;49.368;20.962;2023-02-28T14:58:28;96691.75;;;2.40;65.48
23339;BME280;11841;49.368;20.962;2023-02-28T15:00:56;96689.81;;;2.42;66.08
23339;BME280;11841;49.368;20.962;2023-02-28T15:03:32;96685.25;;;2.44;65.54
23339;BME280;11841;49.368;20.962;2023-02-28T15:06:00;96690.22;;;2.47;65.86
23339;BME280;11841;49.368;20.962;2023-02-28T15:08:28;96691.03;;;2.48;65.80
23339;BME280;11841;49.368;20.962;2023-02-28T15:13:22;96690.28;;;2.28;65.67
23339;BME280;11841;49.368;20.962;2023-02-28T15:21:06;96693.66;;;2.02;66.72
23339;BME280;11841;49.368;20.962;2023-02-28T15:23:35;96702.44;;;2.01;66.73
23339;BME280;11841;49.368;20.962;2023-02-28T15:26:02;96702.44;;;2.10;66.68
23339;BME280;11841;49.368;20.962;2023-02-28T15:28:29;96707.94;;;2.17;66.98